Ana Sayfa
METAR-TAF:

METAR-TAF

Havaalanları :

Singapur, Singapur

Enlem: 01-25-08N, Boylam: 103-51-57E, yükseklik: 11 m

Güncel hava durumu gözlemi

Rapor saat 20:00 UTC de 14 dakika önce yapıldı.
Rüzgar batı/güneybatıdan 5 kt, güney/güneybatı ve batı arasında değişken
Sıcaklık 26°C
Nem 84%
Basınç 1010 hPa
Görüş mesafesi: 8000 m
1600 ft yükseklikte az bulutlu
16000 ft yükseklikte parçalı çok bulutlu
hafif yağmur

METAR: WSSL 052000Z 24005KT 210V270 8000 -RA FEW016 BKN160 26/23 Q1010

Saat: 04:14 (20:14 UTC)

Tahmin

Rapor saat 17:00 UTC de 3 saat ve 14 dakika önce yapıldı.
Ayın 05'si saat 18 UTC'den ayın 07'si saat 00 UTC'ye kadar geçerli Tahmin
Rüzgar güney/güneybatıdan 10 kt
Görüş mesafesi 10 km veya daha fazla
1500 ft yükseklikte az bulutlu
2000 ft yükseklikte parçalı bulutlu

TAF: WSSL 051700Z 0518/0700 20010KT 9999 FEW015 SCT020

4.000'den fazla havaalanı için hava durumu gözlemleri ve tahminleri (METAR ve TAF raporları).

Kullanılabilir istasyonlar harita üzerinde sarı ve kırmızı noktalarla gösterilir.

İstasyonun adını görmek için fareyi noktanın üzerinde gezdirin.

Sonrasında hava gözlem ve tahminlerini görmek için tıklayın.

Haritayı değiştirmek için: yaklaştırmak için siyah artı işaretli yeşil düğmeye ve uzaklaştırmak için de eksi işaretli düğmeye hızla tıklayın; bitişik haritalar için yeşil okları kullanın.


METAR-TAF: